createdAt,value
2017-09-20T00:00:03.019Z,10.3
2017-09-20T00:05:03.361Z,10.1
2017-09-20T00:10:02.894Z,10.1
2017-09-20T00:15:03.320Z,10.3
2017-09-20T00:20:02.925Z,10.3
2017-09-20T00:25:02.504Z,10.1
2017-09-20T00:30:02.992Z,10.1
2017-09-20T00:35:02.559Z,10.1
2017-09-20T00:40:03.171Z,10.1
2017-09-20T00:45:02.573Z,10.0
2017-09-20T00:50:03.141Z,9.5
2017-09-20T00:55:02.496Z,9.3
2017-09-20T01:00:02.909Z,9.5
2017-09-20T01:05:03.464Z,9.8
2017-09-20T01:10:03.111Z,9.8
2017-09-20T01:15:02.715Z,10.0
2017-09-20T01:20:03.168Z,9.8
2017-09-20T01:30:03.361Z,9.8
2017-09-20T01:35:02.742Z,9.8
2017-09-20T01:40:02.373Z,10.0
2017-09-20T01:45:02.874Z,10.0
2017-09-20T01:50:03.376Z,10.0
2017-09-20T01:55:02.902Z,10.0
2017-09-20T02:00:03.317Z,9.8
2017-09-20T02:05:02.687Z,9.8
2017-09-20T02:10:03.326Z,9.8
2017-09-20T02:15:02.926Z,9.8
2017-09-20T02:20:03.306Z,9.8
2017-09-20T02:25:02.850Z,9.8
2017-09-20T02:30:03.263Z,9.8
2017-09-20T02:35:02.692Z,10.0
2017-09-20T02:40:03.168Z,10.0
2017-09-20T02:45:02.806Z,10.1
2017-09-20T02:50:02.448Z,10.1
2017-09-20T02:55:03.014Z,10.1
2017-09-20T03:00:02.470Z,10.1
2017-09-20T03:05:03.080Z,10.3
2017-09-20T03:10:02.525Z,10.3
2017-09-20T03:15:03.119Z,10.5
2017-09-20T03:20:02.718Z,10.5
2017-09-20T03:25:03.347Z,10.3
2017-09-20T03:30:02.846Z,10.5
2017-09-20T03:35:02.462Z,10.6
2017-09-20T03:40:03.092Z,10.8
2017-09-20T03:45:02.471Z,10.8
2017-09-20T03:50:02.968Z,10.8
2017-09-20T03:55:03.364Z,10.8
2017-09-20T04:00:02.739Z,10.6
2017-09-20T04:05:03.150Z,10.6
2017-09-20T04:10:02.585Z,10.5
2017-09-20T04:15:03.162Z,10.5
2017-09-20T04:20:02.689Z,10.5
2017-09-20T04:25:03.257Z,10.5
2017-09-20T04:30:02.578Z,10.6
2017-09-20T04:35:02.982Z,10.6
2017-09-20T04:40:02.396Z,10.8
2017-09-20T04:45:02.767Z,10.8
2017-09-20T04:50:03.251Z,10.8
2017-09-20T04:55:02.696Z,10.8
2017-09-20T05:00:03.244Z,10.8
2017-09-20T05:05:02.784Z,10.8
2017-09-20T05:10:02.378Z,10.8
2017-09-20T05:15:02.836Z,10.6
2017-09-20T05:20:02.443Z,10.6
2017-09-20T05:25:02.997Z,10.6
2017-09-20T05:30:03.368Z,10.8
2017-09-20T05:35:02.887Z,10.8
2017-09-20T05:40:03.353Z,10.8
2017-09-20T05:45:02.865Z,10.8
2017-09-20T05:50:03.327Z,10.8
2017-09-20T05:55:02.895Z,10.8
2017-09-20T06:00:03.332Z,10.8
2017-09-20T06:05:02.823Z,10.8
2017-09-20T06:10:02.541Z,10.8
2017-09-20T06:15:02.949Z,10.8
2017-09-20T06:20:02.596Z,10.8
2017-09-20T06:25:03.071Z,10.8
2017-09-20T06:30:02.530Z,11.0
2017-09-20T06:35:03.128Z,11.1
2017-09-20T06:40:02.728Z,11.3
2017-09-20T06:45:03.249Z,11.3
2017-09-20T06:50:02.782Z,11.3
2017-09-20T06:55:03.194Z,11.3
2017-09-20T07:00:02.721Z,11.6
2017-09-20T07:05:03.292Z,11.6
2017-09-20T07:10:02.712Z,11.8
2017-09-20T07:15:03.102Z,12.0
2017-09-20T07:20:02.692Z,12.1
2017-09-20T07:25:03.301Z,12.1
2017-09-20T07:30:02.928Z,12.1
2017-09-20T07:35:02.523Z,12.5
2017-09-20T07:40:03.013Z,12.5
2017-09-20T07:45:02.478Z,12.6
2017-09-20T07:50:03.078Z,12.6
2017-09-20T07:55:02.608Z,12.8
2017-09-20T08:00:03.043Z,12.8
2017-09-20T08:05:02.584Z,13.1
2017-09-20T08:10:03.065Z,13.1
2017-09-20T08:15:02.515Z,13.1
2017-09-20T08:20:02.935Z,13.1
2017-09-20T08:25:03.307Z,13.5
2017-09-20T08:30:02.887Z,13.6
2017-09-20T08:35:03.372Z,14.0
2017-09-20T08:40:02.855Z,14.3
2017-09-20T08:45:02.415Z,14.1
2017-09-20T08:50:02.902Z,14.3
2017-09-20T08:55:02.445Z,14.8
2017-09-20T09:00:03.017Z,14.3
2017-09-20T09:05:02.606Z,14.1
2017-09-20T09:10:03.085Z,14.8
2017-09-20T09:15:02.478Z,15.3
2017-09-20T09:20:03.077Z,15.3
2017-09-20T09:25:02.465Z,15.1
2017-09-20T09:30:03.076Z,15.3
2017-09-20T09:35:02.466Z,15.5
2017-09-20T09:40:02.958Z,16.0
2017-09-20T09:45:03.383Z,15.8
2017-09-20T09:50:02.741Z,15.8
2017-09-20T09:55:03.304Z,15.8
2017-09-20T10:00:02.690Z,15.6
2017-09-20T10:05:03.133Z,15.5
2017-09-20T10:10:02.698Z,15.1
2017-09-20T10:15:03.096Z,15.8
2017-09-20T10:20:02.448Z,16.0
2017-09-20T10:25:03.054Z,16.0
2017-09-20T10:30:02.428Z,15.8
2017-09-20T10:35:02.849Z,15.8
2017-09-20T10:40:02.548Z,15.6
2017-09-20T10:45:03.138Z,15.6
2017-09-20T10:50:02.875Z,15.3
2017-09-20T10:55:02.455Z,15.1
2017-09-20T11:00:03.006Z,14.8
2017-09-20T11:05:02.552Z,14.8
2017-09-20T11:10:03.248Z,15.0
2017-09-20T11:15:02.732Z,15.0
2017-09-20T11:20:03.188Z,15.0
2017-09-20T11:25:02.761Z,15.1
2017-09-20T11:35:02.949Z,15.8
2017-09-20T11:40:02.588Z,15.6
2017-09-20T11:45:03.094Z,15.8
2017-09-20T11:50:02.663Z,15.8
2017-09-20T11:55:03.198Z,15.5
2017-09-20T12:00:02.771Z,15.5
2017-09-20T12:05:03.215Z,15.3
2017-09-20T12:10:02.772Z,15.1
2017-09-20T12:15:03.212Z,15.1
2017-09-20T12:20:02.689Z,15.3
2017-09-20T12:25:03.285Z,15.6
2017-09-20T12:30:02.687Z,15.8
2017-09-20T12:35:03.253Z,16.0
2017-09-20T12:40:02.656Z,16.0
2017-09-20T12:45:03.234Z,16.2
2017-09-20T12:55:02.514Z,16.3
2017-09-20T13:00:03.064Z,16.6
2017-09-20T13:05:02.631Z,16.6
2017-09-20T13:10:03.304Z,18.7
2017-09-20T13:15:02.888Z,18.5
2017-09-20T13:20:03.350Z,17.8
2017-09-20T13:25:03.018Z,17.7
2017-09-20T13:30:02.407Z,18.8
2017-09-20T13:35:02.937Z,18.8
2017-09-20T13:40:02.393Z,18.7
2017-09-20T13:50:02.699Z,17.2
2017-09-20T13:55:03.096Z,16.7
2017-09-20T14:00:02.716Z,17.0
2017-09-20T14:05:03.131Z,16.7
2017-09-20T14:10:02.742Z,17.1
2017-09-20T14:15:03.168Z,16.7
2017-09-20T14:20:02.843Z,17.0
2017-09-20T14:25:02.531Z,17.0
2017-09-20T14:30:03.163Z,17.1
2017-09-20T14:35:02.807Z,18.5
2017-09-20T14:40:02.562Z,17.5
2017-09-20T14:45:03.012Z,17.1
2017-09-20T14:50:02.451Z,17.1
2017-09-20T14:55:03.001Z,17.0
2017-09-20T15:00:02.417Z,17.8
2017-09-20T15:05:03.036Z,18.8
2017-09-20T15:10:02.686Z,17.7
2017-09-20T15:15:03.284Z,17.2
2017-09-20T15:20:02.906Z,17.1
2017-09-20T15:25:02.437Z,17.0
2017-09-20T15:30:03.125Z,17.0
2017-09-20T15:35:02.752Z,17.1
2017-09-20T15:40:03.293Z,17.7
2017-09-20T15:45:02.902Z,17.3
2017-09-20T15:50:03.342Z,17.5
2017-09-20T15:55:02.771Z,17.7
2017-09-20T16:00:03.218Z,17.8
2017-09-20T16:05:02.622Z,17.7
2017-09-20T16:10:03.287Z,17.5
2017-09-20T16:15:02.688Z,16.7
2017-09-20T16:20:03.243Z,16.3
2017-09-20T16:25:02.824Z,16.2
2017-09-20T16:30:02.401Z,16.0
2017-09-20T16:35:03.091Z,16.0
2017-09-20T16:40:02.707Z,16.0
2017-09-20T16:45:03.226Z,15.8
2017-09-20T16:50:02.831Z,15.8
2017-09-20T16:55:03.253Z,15.6
2017-09-20T17:00:02.725Z,15.6
2017-09-20T17:05:03.124Z,15.5
2017-09-20T17:10:02.837Z,15.5
2017-09-20T17:15:03.308Z,15.3
2017-09-20T17:20:02.729Z,15.1
2017-09-20T17:25:03.135Z,15.1
2017-09-20T17:30:02.760Z,15.0
2017-09-20T17:35:03.254Z,14.6
2017-09-20T17:40:02.711Z,14.6
2017-09-20T17:45:03.250Z,14.3
2017-09-20T17:50:02.715Z,14.5
2017-09-20T17:55:03.324Z,14.3
2017-09-20T18:00:02.889Z,14.1
2017-09-20T18:05:02.582Z,14.1
2017-09-20T18:10:03.249Z,14.1
2017-09-20T18:15:02.652Z,14.0
2017-09-20T18:20:03.309Z,13.8
2017-09-20T18:25:02.716Z,13.6
2017-09-20T18:30:03.289Z,13.6
2017-09-20T18:35:02.908Z,13.5
2017-09-20T18:40:02.470Z,13.1
2017-09-20T18:45:02.982Z,13.1
2017-09-20T18:50:02.553Z,13.1
2017-09-20T18:55:03.140Z,12.8
2017-09-20T19:00:02.747Z,12.8
2017-09-20T19:05:03.191Z,12.6
2017-09-20T19:10:02.671Z,12.6
2017-09-20T19:15:03.074Z,12.5
2017-09-20T19:20:02.517Z,12.3
2017-09-20T19:25:02.949Z,12.3
2017-09-20T19:30:02.585Z,12.1
2017-09-20T19:35:03.215Z,12.0
2017-09-20T19:40:02.647Z,12.1
2017-09-20T19:45:03.025Z,12.0
2017-09-20T19:50:02.549Z,11.8
2017-09-20T19:55:02.953Z,11.8
2017-09-20T20:00:03.251Z,12.0
2017-09-20T20:05:02.786Z,11.6
2017-09-20T20:10:03.232Z,11.6
2017-09-20T20:15:02.861Z,11.6
2017-09-20T20:20:02.509Z,11.6
2017-09-20T20:25:02.949Z,11.3
2017-09-20T20:30:03.359Z,11.3
2017-09-20T20:35:03.066Z,11.6
2017-09-20T20:40:02.503Z,11.6
2017-09-20T20:45:03.103Z,11.6
2017-09-20T20:50:02.754Z,11.6
2017-09-20T20:55:03.371Z,11.6
2017-09-20T21:00:02.816Z,11.8
2017-09-20T21:05:03.311Z,11.8
2017-09-20T21:10:02.726Z,12.0
2017-09-20T21:15:03.121Z,12.1
2017-09-20T21:20:02.735Z,12.1
2017-09-20T21:25:03.354Z,12.1
2017-09-20T21:30:02.805Z,12.3
2017-09-20T21:35:02.398Z,12.3
2017-09-20T21:40:03.032Z,12.5
2017-09-20T21:45:02.404Z,12.3
2017-09-20T21:50:03.097Z,12.5
2017-09-20T21:55:02.645Z,12.5
2017-09-20T22:00:03.114Z,12.6
2017-09-20T22:05:02.677Z,12.6
2017-09-20T22:10:03.264Z,12.6
2017-09-20T22:15:02.768Z,12.6
2017-09-20T22:20:03.136Z,12.6
2017-09-20T22:25:02.543Z,12.6
2017-09-20T22:30:03.142Z,12.6
2017-09-20T22:35:02.500Z,12.6
2017-09-20T22:40:02.931Z,12.6
2017-09-20T22:45:02.477Z,12.6
2017-09-20T22:50:03.064Z,12.6
2017-09-20T22:55:02.657Z,12.6
2017-09-20T23:00:03.539Z,12.6
2017-09-20T23:05:03.356Z,12.5
2017-09-20T23:10:02.777Z,12.5
2017-09-20T23:15:03.332Z,12.5
2017-09-20T23:20:02.784Z,12.3
2017-09-20T23:25:03.222Z,12.3
2017-09-20T23:30:02.598Z,12.5
2017-09-20T23:35:03.252Z,12.5
2017-09-20T23:40:02.875Z,12.3
2017-09-20T23:45:03.345Z,12.3
2017-09-20T23:50:02.943Z,12.3
2017-09-20T23:55:02.597Z,12.3
